Latest Weather Observations for Fowlers Gap

IDN60801

Issued at 3:33 am EST Monday 20 April 2015 (issued every 30 minutes, with the page automatically refreshed every 10 minutes)

About weather observations | Map of weather stations | Latest weather observations for NSW | Other Formats
Station Details ID: 046128 Name: FOWLERS GAP AWS Lat: -31.09 Lon: 141.70 Height: 181.0 m
Data from the previous 72 hours. | See also: Recent months at Fowlers Gap
Date/Time
EST
Temp
°C
App
Temp
°C
Dew
Point
Rel
Hum
%
Delta-T
°C
Wind Press
QNH
hPa
Press
MSL
hPa
Rain
since 9 am
mm
Dir
 
Spd
km/h
Gust
km/h
Spd
kts
Gust
kts
20/03:30am 8.8 2.6 2.4 64 2.7 SSE 24 30 13 16 1031.3 1030.9 0.0
20/03:00am 9.4 3.3 2.5 62 2.9 SSE 24 35 13 19 1031.1 1030.7 0.0
20/02:30am 9.6 3.5 2.5 61 3.0 SSE 24 35 13 19 1031.2 1030.8 0.0
20/02:00am 9.7 4.3 2.3 60 3.1 S 20 28 11 15 1031.6 1031.2 0.0
20/01:30am 9.7 4.2 2.1 59 3.2 S 20 28 11 15 1031.5 1031.1 0.0
20/01:00am 9.8 5.8 2.6 61 3.1 S 13 20 7 11 1031.7 1031.3 0.0
20/12:30am 9.7 5.8 3.2 64 2.8 S 13 17 7 9 1031.7 1031.3 0.0
20/12:00am 10.1 5.4 3.2 62 3.0 S 17 20 9 11 1031.8 1031.4 0.0
 
Date/Time
EST
Temp
°C
App
Temp
°C
Dew
Point
Rel
Hum
%
Delta-T
°C
Wind Press
QNH
hPa
Press
MSL
hPa
Rain
since 9 am
mm
Dir
 
Spd
km/h
Gust
km/h
Spd
kts
Gust
kts
19/11:30pm 10.4 5.7 3.2 61 3.2 S 17 22 9 12 1031.9 1031.5 0.0
19/11:00pm 10.8 6.1 3.1 59 3.4 SSE 17 20 9 11 1032.1 1031.7 0.0
19/10:30pm 11.3 6.0 3.1 57 3.6 S 20 26 11 14 1031.9 1031.5 0.0
19/10:00pm 11.8 6.5 3.1 55 3.8 SSE 20 26 11 14 1031.8 1031.4 0.0
19/09:30pm 12.0 6.8 3.3 55 3.9 S 20 24 11 13 1031.4 1031.0 0.0
19/09:00pm 12.6 7.0 3.3 53 4.1 SSE 22 30 12 16 1031.3 1030.9 0.0
19/08:30pm 12.9 7.2 3.0 51 4.4 S 22 32 12 17 1031.0 1030.6 0.0
19/08:00pm 13.3 7.2 2.8 49 4.6 SSE 24 30 13 16 1030.7 1030.3 0.0
19/07:30pm 13.8 6.9 2.4 46 5.1 SSE 28 33 15 18 1030.2 1029.8 0.0
19/07:00pm 14.2 7.2 1.8 43 5.4 SSE 28 37 15 20 1029.8 1029.4 0.0
19/06:30pm 14.8 6.9 1.0 39 6.0 SSE 32 44 17 24 1029.4 1028.9 0.0
19/06:00pm 15.1 7.7 1.6 40 5.9 SSE 30 44 16 24 1029.0 1028.5 0.0
19/05:30pm 15.8 7.2 0.4 35 6.7 SSE 35 48 19 26 1028.5 1028.0 0.0
19/05:00pm 16.3 7.8 0.8 35 6.8 SSE 35 48 19 26 1028.1 1027.6 0.0
19/04:30pm 16.4 8.3 0.9 35 6.8 SSE 33 44 18 24 1027.9 1027.4 0.0
19/04:00pm 17.0 8.9 1.0 34 7.0 SSE 33 50 18 27 1027.7 1027.2 0.0
19/03:41pm 16.9 9.0 1.0 34 7.0 SSE 32 50 17 27 1027.5 1027.0 0.0
19/03:30pm 16.9 8.3 0.5 33 7.2 SSE 35 50 19 27 1027.5 1027.0 0.0
19/03:00pm 16.9 8.7 0.1 32 7.3 SSE 33 46 18 25 1027.5 1027.0 0.0
19/02:30pm 17.0 8.5 1.0 34 7.1 SSE 35 50 19 27 1027.4 1026.9 0.0
19/02:06pm 16.8 8.9 0.9 34 7.0 SSE 32 50 17 27 1027.4 1026.9 0.0
19/02:00pm 16.7 8.7 1.6 36 6.7 SSE 33 48 18 26 1027.5 1027.0 0.0
19/01:30pm 16.7 7.9 1.6 36 6.8 S 37 50 20 27 1027.5 1027.0 0.0
19/01:00pm 16.5 8.5 1.8 37 6.6 SSE 33 44 18 24 1027.8 1027.3 0.0
19/12:40pm 16.0 7.7 2.1 39 6.3 SSE 35 54 19 29 1028.1 1027.6 0.0
19/12:30pm 16.4 8.2 2.8 40 6.2 SSE 35 44 19 24 1028.2 1027.7 0.0
19/12:03pm 16.0 7.9 3.4 43 5.8 SSE 35 54 19 29 1028.3 1027.8 0.0
19/12:00pm 15.8 7.5 4.2 46 5.4 SSE 37 54 20 29 1028.3 1027.8 0.0
19/11:30am 15.3 7.9 5.2 51 4.8 SSE 33 56 18 30 1028.5 1028.0 0.0
19/11:29am 15.9 8.9 5.8 51 4.9 SSE 32 50 17 27 1028.6 1028.1 0.0
19/11:00am 15.1 7.5 5.9 54 4.4 SSE 35 46 19 25 1028.4 1027.9 0.0
19/10:30am 14.4 6.7 5.5 55 4.2 SSE 35 48 19 26 1028.3 1027.8 0.0
19/10:00am 14.0 5.9 5.1 55 4.2 SSE 37 52 20 28 1028.1 1027.6 0.0
19/09:30am 13.6 6.5 6.2 61 3.5 SSE 33 48 18 26 1027.9 1027.4 0.0
19/09:26am 13.5 6.3 6.1 61 3.6 SSE 33 52 18 28 1027.8 1027.3 0.0
19/09:00am 12.9 5.4 6.3 64 3.1 SSE 35 52 19 28 1027.5 1027.0 0.0
19/08:30am 12.7 6.4 7.2 69 2.7 SSE 30 44 16 24 1027.1 1026.6 0.0
19/08:00am 12.1 5.4 7.4 73 2.3 SSE 32 41 17 22 1026.4 1026.0 0.0
19/07:30am 11.8 6.3 7.7 76 2.0 SSE 26 39 14 21 1025.7 1025.3 0.0
19/07:00am 11.7 7.1 8.0 78 1.8 SSE 22 33 12 18 1025.1 1024.7 0.0
19/06:30am 12.0 6.6 8.1 77 1.9 S 26 33 14 18 1024.6 1024.1 0.0
19/06:00am 12.3 5.9 8.4 77 1.9 SSE 32 41 17 22 1023.9 1023.4 0.0
19/05:30am 12.6 6.5 8.3 75 2.1 SSE 30 39 16 21 1023.1 1022.6 0.0
19/05:00am 13.1 6.2 8.8 75 2.2 S 35 54 19 29 1022.7 1022.2 0.0
19/04:57am 13.1 6.6 9.0 76 2.1 S 33 54 18 29 1022.7 1022.2 0.0
19/04:30am 13.1 8.2 10.1 82 1.6 S 26 37 14 20 1022.6 1022.1 0.0
19/04:00am 13.6 7.7 11.3 86 1.2 S 33 44 18 24 1022.2 1021.7 0.0
19/03:48am 14.7 9.7 12.2 85 1.4 S 30 43 16 23 1021.9 1021.4 0.0
19/03:30am 14.7 12.6 12.4 86 1.3 SSW 15 24 8 13 1021.6 1021.1 0.0
19/03:00am 13.4 11.8 11.6 89 1.0 WSW 11 13 6 7 1021.4 1020.9 0.0
19/02:30am 12.6 11.4 11.5 93 0.6 WSW 9 11 5 6 1021.6 1021.1 0.0
19/02:00am 12.4 11.2 11.6 95 0.4 W 9 9 5 5 1021.7 1021.2 0.0
19/01:30am 11.9 9.8 11.1 95 0.4 WSW 13 15 7 8 1021.6 1021.1 0.0
19/01:00am 12.1 11.1 11.0 93 0.6 W 7 9 4 5 1021.6 1021.1 0.0
19/12:30am 12.7 12.8 11.4 92 0.7 WNW 2 7 1 4 1021.6 1021.1 0.0
19/12:00am 12.7 12.0 11.4 92 0.7 WSW 6 7 3 4 1021.5 1021.0 0.0
 
Date/Time
EST
Temp
°C
App
Temp
°C
Dew
Point
Rel
Hum
%
Delta-T
°C
Wind Press
QNH
hPa
Press
MSL
hPa
Rain
since 9 am
mm
Dir
 
Spd
km/h
Gust
km/h
Spd
kts
Gust
kts
18/11:30pm 12.7 12.1 11.6 93 0.6 WNW 6 9 3 5 1021.6 1021.1 0.0
18/11:00pm 12.9 13.5 12.0 94 0.5 CALM 0 0 0 0 1021.6 1021.1 0.0
18/10:30pm 13.2 12.7 12.1 93 0.6 WNW 6 7 3 4 1021.6 1021.1 0.0
18/10:00pm 13.4 14.1 12.1 92 0.7 CALM 0 0 0 0 1021.4 1020.9 0.0
18/09:30pm 13.7 14.4 12.3 91 0.8 CALM 0 0 0 0 1021.1 1020.6 0.0
18/09:00pm 14.1 14.7 11.8 86 1.2 CALM 0 0 0 0 1020.6 1020.2 0.0
18/08:30pm 14.6 14.6 12.3 86 1.3 S 4 7 2 4 1020.2 1019.8 0.0
18/08:00pm 15.1 14.4 12.1 82 1.6 S 7 9 4 5 1019.8 1019.3 0.0
18/07:30pm 15.9 14.7 11.7 76 2.3 SSW 9 11 5 6 1019.5 1019.0 0.0
18/07:00pm 16.5 14.9 11.6 73 2.7 SW 11 13 6 7 1019.0 1018.5 0.0
18/06:30pm 17.4 14.6 11.4 68 3.3 SW 17 20 9 11 1018.3 1017.8 0.0
18/06:00pm 18.2 15.0 11.3 64 3.8 SW 19 24 10 13 1017.8 1017.3 0.0
18/05:30pm 19.1 14.8 10.9 59 4.5 SW 24 35 13 19 1017.6 1017.1 0.0
18/05:00pm 19.3 15.5 11.3 60 4.4 SW 22 30 12 16 1017.3 1016.8 0.0
18/04:30pm 19.6 16.1 12.1 62 4.2 SW 22 32 12 17 1017.1 1016.6 0.0
18/04:00pm 20.0 17.1 13.0 64 4.0 SSW 20 28 11 15 1017.1 1016.6 0.0
18/03:30pm 19.9 15.6 12.2 61 4.3 WSW 26 35 14 19 1017.1 1016.6 0.0
18/03:00pm 20.1 16.2 13.3 65 3.9 SW 26 35 14 19 1017.0 1016.5 0.0
18/02:30pm 20.4 16.7 13.8 66 3.8 SW 26 33 14 18 1016.9 1016.4 0.0
18/02:00pm 19.9 16.4 13.4 66 3.7 SSW 24 32 13 17 1016.9 1016.4 0.0
18/01:30pm 19.4 15.3 13.8 70 3.2 SW 28 35 15 19 1017.1 1016.6 0.0
18/01:00pm 20.2 18.3 14.1 68 3.6 SW 17 24 9 13 1017.0 1016.5 0.0
18/12:30pm 20.3 18.4 15.7 75 2.8 SW 20 26 11 14 1017.5 1017.0 0.0
18/12:00pm 19.7 17.4 15.8 78 2.3 WSW 22 30 12 16 1017.8 1017.3 0.0
18/11:30am 19.4 17.6 15.5 78 2.3 SW 19 26 10 14 1017.9 1017.4 0.0
18/11:00am 19.3 17.6 15.8 80 2.1 WSW 19 24 10 13 1017.9 1017.4 0.0
18/10:30am 18.8 17.6 16.2 85 1.6 SW 17 20 9 11 1018.0 1017.5 0.0
18/10:00am 18.3 16.2 16.3 88 1.2 SW 22 30 12 16 1017.7 1017.2 0.0
18/09:30am 17.7 15.8 16.6 93 0.7 WSW 22 28 12 15 1017.5 1017.0 0.0
18/09:00am 17.4 15.6 16.1 92 0.8 WSW 20 24 11 13 1017.3 1016.8 10.0
18/08:30am 17.6 16.1 16.3 92 0.8 WSW 19 20 10 11 1017.1 1016.6 10.0
18/08:00am 17.9 17.4 16.9 94 0.6 WSW 15 19 8 10 1016.3 1015.8 10.0
18/07:30am 17.9 17.6 17.3 96 0.4 WSW 15 20 8 11 1016.0 1015.5 10.0
18/07:00am 17.9 18.3 17.3 96 0.4 WSW 11 15 6 8 1015.3 1014.7 10.0
18/06:30am 18.0 17.3 17.4 96 0.4 W 17 22 9 12 1015.6 1015.1 10.0
18/06:00am 18.1 19.4 17.6 97 0.3 ESE 7 9 4 5 1014.3 1013.8 10.0
18/05:30am 17.9 18.7 17.4 97 0.3 WNW 9 13 5 7 1014.9 1014.4 9.8
18/05:00am 18.1 18.1 17.3 95 0.5 WNW 13 19 7 10 1014.9 1014.4 9.6
18/04:30am 18.2 19.5 17.6 96 0.4 NW 7 11 4 6 1014.5 1014.0 9.6
18/04:00am 18.2 18.8 17.6 96 0.4 WNW 11 15 6 8 1014.5 1014.0 9.6
18/03:30am 18.3 19.3 17.7 96 0.4 WNW 9 13 5 7 1014.4 1013.9 9.6
18/03:00am 18.3 19.8 17.7 96 0.4 N 6 7 3 4 1014.5 1014.0 9.2
18/02:30am 18.3 19.7 17.7 96 0.4 NW 7 11 4 6 1014.9 1014.4 9.2
18/02:00am 18.4 19.8 17.8 96 0.4 NW 7 9 4 5 1015.2 1014.6 9.2
18/01:30am 18.4 20.0 17.8 96 0.4 NNW 6 7 3 4 1015.4 1014.8 9.2
18/01:00am 18.6 19.2 17.8 95 0.5 NW 11 13 6 7 1016.1 1015.6 8.6
18/12:30am 18.6 18.9 17.8 95 0.5 NNW 13 20 7 11 1016.4 1015.9 8.0
18/12:00am 18.6 18.8 17.6 94 0.6 N 13 20 7 11 1016.2 1015.7 7.4
 
Date/Time
EST
Temp
°C
App
Temp
°C
Dew
Point
Rel
Hum
%
Delta-T
°C
Wind Press
QNH
hPa
Press
MSL
hPa
Rain
since 9 am
mm
Dir
 
Spd
km/h
Gust
km/h
Spd
kts
Gust
kts
17/11:30pm 18.7 18.9 17.7 94 0.6 NNW 13 19 7 10 1016.6 1016.1 7.2
17/11:00pm 18.5 19.3 17.3 93 0.7 N 9 13 5 7 1016.4 1015.9 6.6
17/10:30pm 18.7 19.6 17.5 93 0.7 N 9 11 5 6 1016.7 1016.2 5.2
17/10:00pm 18.6 20.0 17.3 92 0.8 NW 6 9 3 5 1017.0 1016.5 4.6
17/09:30pm 19.0 20.6 17.8 93 0.7 NW 6 7 3 4 1016.9 1016.4 2.8
17/09:00pm 19.3 20.3 17.8 91 0.9 NW 9 11 5 6 1016.6 1016.1 1.0
17/08:30pm 19.5 21.3 17.5 88 1.2 NE 4 6 2 3 1015.8 1015.3 0.6
17/08:00pm 19.5 20.0 17.5 88 1.2 SW 11 19 6 10 1015.3 1014.7 0.6
17/07:30pm 19.7 20.9 17.3 86 1.5 SSW 7 11 4 6 1014.7 1014.2 0.4
17/07:00pm 20.2 22.5 17.8 86 1.5 SSW 2 7 1 4 1014.7 1014.2 0.4
17/06:30pm 20.7 21.5 17.3 81 2.1 SW 9 9 5 5 1014.9 1014.4 0.2
17/06:00pm 21.5 23.8 16.7 74 2.9 CALM 0 0 0 0 1014.7 1014.2 0.0
17/05:30pm 22.4 23.8 15.5 65 4.2 ESE 2 7 1 4 1014.2 1013.7 0.0
17/05:00pm 22.5 22.6 15.4 64 4.3 SSE 9 11 5 6 1013.9 1013.4 0.0
17/04:30pm 22.8 24.3 14.6 60 4.9 CALM 0 0 0 0 1013.9 1013.4 0.0
17/04:00pm 22.9 24.3 14.5 59 5.0 CALM 0 0 0 0 1014.2 1013.7 0.0
17/03:30pm 23.1 23.5 15.2 61 4.8 SSE 7 7 4 4 1014.7 1014.2 0.0
17/03:00pm 22.9 22.8 15.0 61 4.7 SSW 9 11 5 6 1015.1 1014.5 0.0
17/02:30pm 23.0 23.3 15.1 61 4.7 SW 7 9 4 5 1015.3 1014.7 0.0
17/02:00pm 23.2 23.4 14.7 58 5.1 SSW 7 9 4 5 1015.5 1015.0 0.0
17/01:30pm 23.0 23.2 14.8 60 4.9 E 7 7 4 4 1015.6 1015.1 0.0
17/01:00pm 22.7 22.5 14.8 61 4.7 SE 9 11 5 6 1016.3 1015.8 0.0
17/12:30pm 22.3 21.9 15.2 64 4.3 ESE 11 17 6 9 1016.6 1016.1 0.0
17/12:00pm 21.8 20.4 15.6 68 3.7 ESE 17 24 9 13 1017.0 1016.5 0.0
17/11:30am 20.9 19.6 15.7 72 3.1 SE 17 24 9 13 1017.6 1017.1 0.0
17/11:00am 20.1 18.4 15.7 76 2.6 SSE 19 26 10 14 1018.0 1017.5 0.0
17/10:30am 19.6 18.3 15.7 78 2.3 SSE 17 24 9 13 1018.5 1018.0 0.0
17/10:00am 19.2 17.3 15.7 80 2.1 S 20 28 11 15 1019.1 1018.6 0.0
17/09:30am 19.5 18.0 15.4 77 2.4 SW 17 20 9 11 1019.8 1019.3 0.0
17/09:00am 20.1 18.9 14.0 68 3.5 E 13 28 7 15 1018.9 1018.4 0.6
17/08:30am 19.5 17.8 14.7 74 2.8 ENE 17 24 9 13 1018.3 1017.8 0.6
17/08:00am 18.1 17.6 15.0 82 1.8 E 11 17 6 9 1018.4 1017.9 0.6
17/07:30am 17.1 16.8 14.4 84 1.6 ENE 9 17 5 9 1018.4 1017.9 0.6
17/07:00am 17.2 16.0 14.1 82 1.8 E 13 19 7 10 1018.3 1017.8 0.6
17/06:30am 16.9 15.3 14.0 83 1.7 E 15 20 8 11 1018.2 1017.7 0.6
17/06:00am 16.9 14.6 14.0 83 1.7 E 19 26 10 14 1018.0 1017.5 0.6
17/05:30am 16.7 13.0 14.0 84 1.5 ESE 26 39 14 21 1018.3 1017.8 0.6
17/05:23am 16.8 12.3 13.9 83 1.7 ESE 30 48 16 26 1018.2 1017.7 0.6
17/05:00am 17.0 12.5 13.9 82 1.8 ESE 30 39 16 21 1018.1 1017.6 0.6
17/04:30am 16.6 13.0 14.2 86 1.4 SE 26 35 14 19 1018.7 1018.2 0.6
17/04:00am 16.3 14.4 14.3 88 1.1 SSE 17 26 9 14 1019.8 1019.3 0.6

Other Formats:

Comma delimited format used in spreadsheet applications
http://www.bom.gov.au/fwo/IDN60801/IDN60801.94686.axf

JavaScript Object Notation format (JSON) in row-major order
http://www.bom.gov.au/fwo/IDN60801/IDN60801.94686.json